createdAt,value
2018-06-11T00:03:01.905Z,83.20
2018-06-11T00:09:51.049Z,83.70
2018-06-11T00:13:15.671Z,83.20
2018-06-11T00:20:04.853Z,83.30
2018-06-11T00:23:29.549Z,83.50
2018-06-11T00:26:54.169Z,85.30
2018-06-11T00:30:18.855Z,86.00
2018-06-11T00:33:43.546Z,85.10
2018-06-11T00:37:08.198Z,85.60
2018-06-11T00:40:32.901Z,85.90
2018-06-11T00:43:57.541Z,86.20
2018-06-11T00:47:22.265Z,85.60
2018-06-11T00:50:46.956Z,86.40
2018-06-11T00:54:11.613Z,86.50
2018-06-11T00:57:36.253Z,86.80
2018-06-11T01:01:00.988Z,86.60
2018-06-11T01:04:25.653Z,86.30
2018-06-11T01:07:50.379Z,86.00
2018-06-11T01:11:15.162Z,86.80
2018-06-11T01:14:39.859Z,87.40
2018-06-11T01:18:04.550Z,87.40
2018-06-11T01:21:29.266Z,88.60
2018-06-11T01:24:53.911Z,88.30
2018-06-11T01:28:18.672Z,88.20
2018-06-11T01:31:43.362Z,89.10
2018-06-11T01:35:08.135Z,88.90
2018-06-11T01:38:32.752Z,88.90
2018-06-11T01:41:57.393Z,89.70
2018-06-11T01:45:22.113Z,90.30
2018-06-11T01:48:46.884Z,89.60
2018-06-11T01:52:11.664Z,90.00
2018-06-11T01:55:36.350Z,89.50
2018-06-11T01:59:01.085Z,89.40
2018-06-11T02:02:25.741Z,88.30
2018-06-11T02:09:14.760Z,88.50
2018-06-11T02:12:39.370Z,88.90
2018-06-11T02:16:04.107Z,88.20
2018-06-11T02:19:28.843Z,89.50
2018-06-11T02:22:53.528Z,88.80
2018-06-11T02:26:18.878Z,90.00
2018-06-11T02:29:43.561Z,90.10
2018-06-11T02:33:08.277Z,90.50
2018-06-11T02:36:32.942Z,90.30
2018-06-11T02:39:57.669Z,90.10
2018-06-11T02:43:22.293Z,90.20
2018-06-11T02:46:47.119Z,90.20
2018-06-11T02:50:11.860Z,90.40
2018-06-11T02:53:36.518Z,91.00
2018-06-11T02:57:01.191Z,91.20
2018-06-11T03:00:25.871Z,91.70
2018-06-11T03:03:50.519Z,91.80
2018-06-11T03:07:15.261Z,92.00
2018-06-11T03:10:40.001Z,92.10
2018-06-11T03:14:04.721Z,92.10
2018-06-11T03:20:53.717Z,91.90
2018-06-11T03:24:18.380Z,92.10
2018-06-11T03:27:43.092Z,92.30
2018-06-11T03:31:07.831Z,92.10
2018-06-11T03:34:32.505Z,92.10
2018-06-11T03:37:57.162Z,92.50
2018-06-11T03:41:21.824Z,92.20
2018-06-11T03:44:46.552Z,91.80
2018-06-11T03:48:11.190Z,91.70
2018-06-11T03:51:35.893Z,92.00
2018-06-11T03:55:00.658Z,92.10
2018-06-11T03:58:25.401Z,92.10
2018-06-11T04:01:50.201Z,91.90
2018-06-11T04:05:14.969Z,92.10
2018-06-11T04:08:39.673Z,92.10
2018-06-11T04:12:05.227Z,92.30
2018-06-11T04:15:29.969Z,92.70
2018-06-11T04:18:54.658Z,93.00
2018-06-11T04:22:19.378Z,93.30
2018-06-11T04:25:44.160Z,93.70
2018-06-11T04:32:33.234Z,94.30
2018-06-11T04:35:58.062Z,94.40
2018-06-11T04:39:22.792Z,94.40
2018-06-11T04:42:47.522Z,94.00
2018-06-11T04:46:12.170Z,93.60
2018-06-11T04:49:36.926Z,93.10
2018-06-11T04:53:01.700Z,92.90
2018-06-11T04:56:26.384Z,92.80
2018-06-11T04:59:51.067Z,92.50
2018-06-11T05:06:40.331Z,92.40
2018-06-11T05:10:05.228Z,92.20
2018-06-11T05:13:29.998Z,92.00
2018-06-11T05:16:54.715Z,91.70
2018-06-11T05:20:19.428Z,91.70
2018-06-11T05:23:44.237Z,91.00
2018-06-11T05:27:08.913Z,90.60
2018-06-11T05:30:33.713Z,90.40
2018-06-11T05:33:58.535Z,90.80
2018-06-11T05:37:23.482Z,90.30
2018-06-11T05:40:48.210Z,90.50
2018-06-11T05:44:12.928Z,90.20
2018-06-11T05:47:37.660Z,90.20
2018-06-11T05:54:26.613Z,90.20
2018-06-11T05:57:51.263Z,90.40
2018-06-11T06:04:40.616Z,90.40
2018-06-11T06:11:30.167Z,90.20
2018-06-11T06:14:54.905Z,90.50
2018-06-11T06:21:43.958Z,90.00
2018-06-11T06:25:08.630Z,89.80
2018-06-11T06:28:33.314Z,89.60
2018-06-11T06:31:58.188Z,89.60
2018-06-11T06:35:22.939Z,88.70
2018-06-11T06:38:47.668Z,88.30
2018-06-11T06:42:12.412Z,88.50
2018-06-11T06:45:37.183Z,88.40
2018-06-11T06:49:01.894Z,87.50
2018-06-11T06:52:28.543Z,86.90
2018-06-11T06:55:53.153Z,86.00
2018-06-11T06:59:17.964Z,85.60
2018-06-11T07:06:08.787Z,84.40
2018-06-11T07:09:33.486Z,82.70
2018-06-11T07:12:59.227Z,81.40
2018-06-11T07:16:23.947Z,80.00
2018-06-11T07:19:48.657Z,80.00
2018-06-11T07:23:13.311Z,79.70
2018-06-11T07:26:38.031Z,78.90
2018-06-11T07:33:27.173Z,77.60
2018-06-11T07:36:52.381Z,78.00
2018-06-11T07:40:17.888Z,77.30
2018-06-11T07:43:42.756Z,77.70
2018-06-11T07:47:07.427Z,77.30
2018-06-11T07:50:32.380Z,77.00
2018-06-11T07:53:57.200Z,77.40
2018-06-11T07:57:21.941Z,76.50
2018-06-11T08:00:46.593Z,75.30
2018-06-11T08:04:11.190Z,74.90
2018-06-11T08:07:35.934Z,75.70
2018-06-11T08:11:00.696Z,74.20
2018-06-11T08:14:25.556Z,73.40
2018-06-11T08:17:50.542Z,73.80
2018-06-11T08:21:15.272Z,74.60
2018-06-11T08:28:04.262Z,75.00
2018-06-11T08:34:53.285Z,73.10
2018-06-11T08:41:42.592Z,73.00
2018-06-11T08:45:07.261Z,72.80
2018-06-11T08:48:31.926Z,72.90
2018-06-11T08:55:21.052Z,71.70
2018-06-11T08:58:45.817Z,72.60
2018-06-11T09:02:10.562Z,71.90
2018-06-11T09:08:59.467Z,73.80
2018-06-11T09:12:25.224Z,74.00
2018-06-11T09:15:49.854Z,73.30
2018-06-11T09:19:15.528Z,73.70
2018-06-11T09:22:40.405Z,73.10
2018-06-11T09:26:06.507Z,73.50
2018-06-11T09:29:31.304Z,74.00
2018-06-11T09:32:57.012Z,72.00
2018-06-11T09:36:21.716Z,71.00
2018-06-11T09:39:46.516Z,70.60
2018-06-11T09:43:12.991Z,70.50
2018-06-11T09:46:37.722Z,70.60
2018-06-11T09:50:02.754Z,70.10
2018-06-11T09:56:53.632Z,71.00
2018-06-11T10:00:23.660Z,71.10
2018-06-11T10:03:48.417Z,71.60
2018-06-11T10:07:13.119Z,72.10
2018-06-11T10:10:38.333Z,73.30
2018-06-11T10:14:03.124Z,74.00
2018-06-11T10:20:54.438Z,74.90
2018-06-11T10:27:44.887Z,75.70
2018-06-11T10:31:10.783Z,76.80
2018-06-11T10:34:35.460Z,77.60
2018-06-11T10:38:00.310Z,78.40
2018-06-11T10:41:25.236Z,80.40
2018-06-11T10:44:49.879Z,81.90
2018-06-11T10:48:14.557Z,85.00
2018-06-11T10:51:39.310Z,86.10
2018-06-11T10:55:05.105Z,88.90
2018-06-11T10:58:29.821Z,89.50
2018-06-11T11:01:54.477Z,90.50
2018-06-11T11:05:19.128Z,90.60
2018-06-11T11:08:43.900Z,90.20
2018-06-11T11:12:08.573Z,90.00
2018-06-11T11:15:33.218Z,91.50
2018-06-11T11:22:22.148Z,91.80
2018-06-11T11:25:46.924Z,92.20
2018-06-11T11:29:11.597Z,90.20
2018-06-11T11:32:36.398Z,90.90
2018-06-11T11:36:01.084Z,91.90
2018-06-11T11:39:25.760Z,90.60
2018-06-11T11:42:50.544Z,90.70
2018-06-11T11:46:15.205Z,91.70
2018-06-11T11:49:39.950Z,91.50
2018-06-11T11:56:28.959Z,92.50
2018-06-11T11:59:53.570Z,93.10
2018-06-11T12:03:18.269Z,93.50
2018-06-11T12:06:43.026Z,93.20
2018-06-11T12:10:07.828Z,93.40
2018-06-11T12:13:32.471Z,93.40
2018-06-11T12:16:57.168Z,92.40
2018-06-11T12:20:21.853Z,92.20
2018-06-11T12:23:46.512Z,93.40
2018-06-11T12:27:11.131Z,93.10
2018-06-11T12:30:35.718Z,94.00
2018-06-11T12:34:00.453Z,92.40
2018-06-11T12:37:25.214Z,93.60
2018-06-11T12:40:49.838Z,94.20
2018-06-11T12:44:14.549Z,94.70
2018-06-11T12:47:39.291Z,95.00
2018-06-11T12:51:09.737Z,94.90
2018-06-11T12:54:34.342Z,96.10
2018-06-11T12:57:59.000Z,94.10
2018-06-11T13:04:47.962Z,93.00
2018-06-11T13:11:37.090Z,92.00
2018-06-11T13:15:01.807Z,92.10
2018-06-11T13:21:50.803Z,93.10
2018-06-11T13:25:15.478Z,94.00
2018-06-11T13:28:40.217Z,94.50
2018-06-11T13:35:29.546Z,94.60
2018-06-11T13:38:55.054Z,95.10
2018-06-11T13:42:19.750Z,94.70
2018-06-11T13:45:45.393Z,94.00
2018-06-11T13:49:10.108Z,93.60
2018-06-11T13:52:34.716Z,92.80
2018-06-11T13:55:59.401Z,93.00
2018-06-11T13:59:24.568Z,93.00
2018-06-11T14:02:49.301Z,92.90
2018-06-11T14:09:38.406Z,92.20
2018-06-11T14:13:03.562Z,90.80
2018-06-11T14:16:28.293Z,91.10
2018-06-11T14:19:53.005Z,90.40
2018-06-11T14:26:42.043Z,91.60
2018-06-11T14:30:06.809Z,92.40
2018-06-11T14:33:31.443Z,93.80
2018-06-11T14:36:56.101Z,94.10
2018-06-11T14:40:20.820Z,94.70
2018-06-11T14:43:45.759Z,94.80
2018-06-11T14:47:10.454Z,94.80
2018-06-11T14:50:35.196Z,95.20
2018-06-11T14:53:59.975Z,94.80
2018-06-11T14:57:24.659Z,93.90
2018-06-11T15:00:49.322Z,93.50
2018-06-11T15:04:14.041Z,93.50
2018-06-11T15:07:38.659Z,94.70
2018-06-11T15:11:03.356Z,94.70
2018-06-11T15:14:28.197Z,95.40
2018-06-11T15:17:53.037Z,95.40
2018-06-11T15:21:18.391Z,95.10
2018-06-11T15:24:43.459Z,95.70
2018-06-11T15:28:08.229Z,95.00
2018-06-11T15:31:32.991Z,95.20
2018-06-11T15:34:57.821Z,96.40
2018-06-11T15:38:22.811Z,96.70
2018-06-11T15:41:47.814Z,97.10
2018-06-11T15:45:13.796Z,96.40
2018-06-11T15:48:38.497Z,94.60
2018-06-11T15:52:03.508Z,92.90
2018-06-11T15:55:28.968Z,92.00
2018-06-11T15:58:53.752Z,90.00
2018-06-11T16:02:18.459Z,86.80
2018-06-11T16:05:43.679Z,85.90
2018-06-11T16:12:35.384Z,80.00
2018-06-11T16:16:00.293Z,78.70
2018-06-11T16:22:49.262Z,80.10
2018-06-11T16:29:38.270Z,79.70
2018-06-11T16:33:03.173Z,76.30
2018-06-11T16:36:27.947Z,74.20
2018-06-11T16:39:52.633Z,74.00
2018-06-11T16:43:17.339Z,74.30
2018-06-11T16:46:43.264Z,74.60
2018-06-11T16:50:10.989Z,71.60
2018-06-11T16:53:37.829Z,68.60
2018-06-11T16:57:03.606Z,67.10
2018-06-11T17:00:28.299Z,66.70
2018-06-11T17:03:54.094Z,63.40
2018-06-11T17:07:19.031Z,63.10
2018-06-11T17:10:43.884Z,64.60
2018-06-11T17:14:09.064Z,64.80
2018-06-11T17:24:25.047Z,67.20
2018-06-11T17:27:50.652Z,66.50
2018-06-11T17:31:16.900Z,66.80
2018-06-11T17:34:42.568Z,67.00
2018-06-11T17:38:07.263Z,65.60
2018-06-11T17:41:31.983Z,66.00
2018-06-11T17:44:56.710Z,66.30
2018-06-11T17:51:46.128Z,67.30
2018-06-11T17:55:10.852Z,66.80
2018-06-11T18:02:00.400Z,67.30
2018-06-11T18:08:49.844Z,69.80
2018-06-11T18:12:14.604Z,69.50
2018-06-11T18:15:40.008Z,71.70
2018-06-11T18:19:04.807Z,73.00
2018-06-11T18:22:32.091Z,73.80
2018-06-11T18:25:58.561Z,73.40
2018-06-11T18:29:23.361Z,73.30
2018-06-11T18:32:49.382Z,74.90
2018-06-11T18:36:14.174Z,75.30
2018-06-11T18:39:39.305Z,76.50
2018-06-11T18:46:28.794Z,78.00
2018-06-11T18:53:19.527Z,81.00
2018-06-11T18:56:45.851Z,84.80
2018-06-11T19:00:10.861Z,85.00
2018-06-11T19:03:36.646Z,84.10
2018-06-11T19:07:01.394Z,85.20
2018-06-11T19:10:26.481Z,85.50
2018-06-11T19:13:51.242Z,86.70
2018-06-11T19:17:18.723Z,87.50
2018-06-11T19:20:43.561Z,87.60
2018-06-11T19:24:10.583Z,87.20
2018-06-11T19:27:35.567Z,88.80
2018-06-11T19:34:25.877Z,90.00
2018-06-11T19:37:50.818Z,91.30
2018-06-11T19:41:15.670Z,91.00
2018-06-11T19:44:40.500Z,91.40
2018-06-11T19:48:05.440Z,91.50
2018-06-11T19:51:30.145Z,91.80
2018-06-11T19:54:54.844Z,91.70
2018-06-11T19:58:19.593Z,91.90
2018-06-11T20:01:44.359Z,91.80
2018-06-11T20:05:09.153Z,91.50
2018-06-11T20:08:33.796Z,91.00
2018-06-11T20:11:58.621Z,91.10
2018-06-11T20:15:24.112Z,91.40
2018-06-11T20:18:48.802Z,91.70
2018-06-11T20:22:14.468Z,91.70
2018-06-11T20:25:39.265Z,91.80
2018-06-11T20:29:04.126Z,91.60
2018-06-11T20:32:28.872Z,91.80
2018-06-11T20:39:17.934Z,92.40
2018-06-11T20:42:42.845Z,92.40
2018-06-11T20:49:33.199Z,92.90
2018-06-11T20:52:59.043Z,93.40
2018-06-11T20:56:25.141Z,93.20
2018-06-11T20:59:50.912Z,93.80
2018-06-11T21:03:16.007Z,93.70
2018-06-11T21:06:41.200Z,94.00
2018-06-11T21:10:06.311Z,93.50
2018-06-11T21:13:31.802Z,93.60
2018-06-11T21:16:56.802Z,93.50
2018-06-11T21:20:21.981Z,94.20
2018-06-11T21:23:46.720Z,94.30
2018-06-11T21:27:11.524Z,94.60
2018-06-11T21:30:36.238Z,94.90
2018-06-11T21:34:00.983Z,95.10
2018-06-11T21:37:25.867Z,95.50
2018-06-11T21:40:50.574Z,96.20
2018-06-11T21:44:15.394Z,96.30
2018-06-11T21:47:40.114Z,96.80
2018-06-11T21:51:04.820Z,96.50
2018-06-11T21:54:29.772Z,96.90
2018-06-11T21:57:54.487Z,96.80
2018-06-11T22:01:19.234Z,97.30
2018-06-11T22:08:09.398Z,98.40
2018-06-11T22:11:34.191Z,98.50
2018-06-11T22:14:58.893Z,99.00
2018-06-11T22:18:23.595Z,99.60
2018-06-11T22:21:48.318Z,99.80
2018-06-11T22:25:13.047Z,99.90
2018-06-11T22:28:37.813Z,99.90
2018-06-11T22:32:02.589Z,99.90
2018-06-11T22:35:27.320Z,99.90
2018-06-11T22:38:52.055Z,99.90
2018-06-11T22:42:16.810Z,99.90
2018-06-11T22:45:41.560Z,99.70
2018-06-11T22:52:30.727Z,99.80
2018-06-11T22:55:56.381Z,99.60
2018-06-11T22:59:21.039Z,99.90
2018-06-11T23:02:45.681Z,99.90
2018-06-11T23:06:10.449Z,99.90
2018-06-11T23:09:35.145Z,99.90
2018-06-11T23:12:59.785Z,99.90
2018-06-11T23:16:24.542Z,99.90
2018-06-11T23:19:49.191Z,99.90
2018-06-11T23:23:13.893Z,99.90
2018-06-11T23:26:38.629Z,99.90
2018-06-11T23:30:03.394Z,99.90
2018-06-11T23:33:28.095Z,99.90
2018-06-11T23:36:52.879Z,99.90
2018-06-11T23:40:17.583Z,99.90
2018-06-11T23:43:42.200Z,99.90
2018-06-11T23:47:06.967Z,99.90
2018-06-11T23:50:31.608Z,99.90
2018-06-11T23:53:56.271Z,99.90
2018-06-11T23:57:20.893Z,99.90
